Time,TemperatureF,DewpointF,PressureIn,WindDirection,WindDirectionDegrees,WindSpeedMPH,WindSpeedGustMPH,Humidity,HourlyPrecipIn,Conditions,Clouds,dailyrainin,SolarRadiationWatts/m^2,SoftwareType,DateUTC
2013-02-26 00:02:00,10.0,7.0,-100.00,WSW,257,1.0,2.0,87,0.00,,,0.00,0.000000,,2013-02-26 06:02:00,
2013-02-26 00:32:00,7.0,3.0,-100.00,ESE,106,1.0,4.0,84,0.00,,,0.00,0.000000,,2013-02-26 06:32:00,
2013-02-26 00:42:00,7.0,3.0,-100.00,ESE,106,1.0,4.0,84,0.00,,,0.00,0.000000,,2013-02-26 06:42:00,
2013-02-26 00:52:00,7.0,3.0,-100.00,ESE,106,1.0,4.0,84,0.00,,,0.00,0.000000,,2013-02-26 06:52:00,
2013-02-26 01:01:00,7.0,3.0,-100.00,ESE,106,1.0,4.0,84,0.00,,,0.00,0.000000,,2013-02-26 07:01:00,
2013-02-26 01:32:00,7.0,3.0,-100.00,ENE,70,0.0,1.0,84,0.00,,,0.00,0.000000,,2013-02-26 07:32:00,
2013-02-26 01:42:00,7.0,3.0,-100.00,ENE,70,0.0,1.0,84,0.00,,,0.00,0.000000,,2013-02-26 07:42:00,
2013-02-26 01:52:00,7.0,3.0,-100.00,ENE,70,0.0,1.0,84,0.00,,,0.00,0.000000,,2013-02-26 07:52:00,
2013-02-26 02:02:00,7.0,3.0,-100.00,ENE,70,0.0,1.0,84,0.00,,,0.00,0.000000,,2013-02-26 08:02:00,
2013-02-26 02:32:00,8.0,5.0,-100.00,WSW,242,0.0,2.0,86,0.00,,,0.00,0.000000,,2013-02-26 08:32:00,
2013-02-26 02:42:00,8.0,5.0,-100.00,WSW,242,0.0,2.0,86,0.00,,,0.00,0.000000,,2013-02-26 08:42:00,
2013-02-26 02:52:00,8.0,5.0,-100.00,WSW,242,0.0,2.0,86,0.00,,,0.00,0.000000,,2013-02-26 08:52:00,
2013-02-26 03:02:00,8.0,5.0,-100.00,WSW,242,0.0,2.0,86,0.00,,,0.00,0.000000,,2013-02-26 09:02:00,
2013-02-26 03:32:00,10.0,7.0,-100.00,NE,44,2.0,4.0,88,0.00,,,0.00,0.000000,,2013-02-26 09:32:00,
2013-02-26 03:43:00,10.0,7.0,-100.00,NE,44,2.0,4.0,88,0.00,,,0.00,0.000000,,2013-02-26 09:43:00,
2013-02-26 03:52:00,10.0,7.0,-100.00,NE,44,2.0,4.0,88,0.00,,,0.00,0.000000,,2013-02-26 09:52:00,
2013-02-26 04:01:00,10.0,7.0,-100.00,NE,44,2.0,4.0,88,0.00,,,0.00,0.000000,,2013-02-26 10:01:00,
2013-02-26 04:32:00,10.0,7.0,-100.00,NNE,14,1.0,4.0,87,0.00,,,0.00,0.000000,,2013-02-26 10:32:00,
2013-02-26 04:42:00,10.0,7.0,-100.00,NNE,14,1.0,4.0,87,0.00,,,0.00,0.000000,,2013-02-26 10:42:00,
2013-02-26 04:52:00,10.0,7.0,-100.00,NNE,14,1.0,4.0,87,0.00,,,0.00,0.000000,,2013-02-26 10:52:00,
2013-02-26 05:01:00,10.0,7.0,-100.00,NNE,14,1.0,4.0,87,0.00,,,0.00,0.000000,,2013-02-26 11:01:00,
2013-02-26 05:32:00,9.0,5.0,-100.00,North,351,2.0,3.0,85,0.00,,,0.00,0.000000,,2013-02-26 11:32:00,
2013-02-26 05:42:00,9.0,5.0,-100.00,North,351,2.0,3.0,85,0.00,,,0.00,0.000000,,2013-02-26 11:42:00,
2013-02-26 05:52:00,9.0,5.0,-100.00,North,351,2.0,3.0,85,0.00,,,0.00,0.000000,,2013-02-26 11:52:00,
2013-02-26 06:01:00,9.0,5.0,-100.00,North,351,2.0,3.0,85,0.00,,,0.00,0.000000,,2013-02-26 12:01:00,
2013-02-26 06:32:00,10.0,7.0,-100.00,NNE,15,2.0,4.0,87,0.00,,,0.00,0.000000,,2013-02-26 12:32:00,
2013-02-26 06:42:00,10.0,7.0,-100.00,NNE,15,2.0,4.0,87,0.00,,,0.00,0.000000,,2013-02-26 12:42:00,
2013-02-26 06:53:00,10.0,7.0,-100.00,NNE,15,2.0,4.0,87,0.00,,,0.00,0.000000,,2013-02-26 12:53:00,
2013-02-26 07:01:00,10.0,7.0,-100.00,NNE,15,2.0,4.0,87,0.00,,,0.00,0.000000,,2013-02-26 13:01:00,
2013-02-26 07:32:00,11.0,8.0,-100.00,NNE,23,2.0,4.0,86,0.00,,,0.00,1.000000,,2013-02-26 13:32:00,
2013-02-26 07:42:00,11.0,8.0,-100.00,NNE,23,2.0,4.0,86,0.00,,,0.00,1.000000,,2013-02-26 13:42:00,
2013-02-26 07:52:00,11.0,8.0,-100.00,NNE,23,2.0,4.0,86,0.00,,,0.00,1.000000,,2013-02-26 13:52:00,
2013-02-26 08:01:00,11.0,8.0,-100.00,NNE,23,2.0,4.0,86,0.00,,,0.00,1.000000,,2013-02-26 14:01:00,
2013-02-26 08:32:00,15.0,12.0,-100.00,North,6,3.0,5.0,88,0.00,,,0.00,29.000000,,2013-02-26 14:32:00,
2013-02-26 08:42:00,15.0,12.0,-100.00,North,6,3.0,5.0,88,0.00,,,0.00,29.000000,,2013-02-26 14:42:00,
2013-02-26 08:52:00,15.0,12.0,-100.00,North,6,3.0,5.0,88,0.00,,,0.00,29.000000,,2013-02-26 14:52:00,
2013-02-26 09:02:00,15.0,12.0,-100.00,North,6,3.0,5.0,88,0.00,,,0.00,29.000000,,2013-02-26 15:02:00,
2013-02-26 09:32:00,21.0,18.0,-100.00,North,0,3.0,5.0,88,0.00,,,0.00,106.000000,,2013-02-26 15:32:00,
2013-02-26 09:42:00,21.0,18.0,-100.00,North,0,3.0,5.0,88,0.00,,,0.00,106.000000,,2013-02-26 15:42:00,
2013-02-26 09:52:00,21.0,18.0,-100.00,North,0,3.0,5.0,88,0.00,,,0.00,106.000000,,2013-02-26 15:52:00,
2013-02-26 10:01:00,21.0,18.0,-100.00,North,0,3.0,5.0,88,0.00,,,0.00,106.000000,,2013-02-26 16:01:00,
2013-02-26 10:32:00,26.0,23.0,-100.00,NNE,13,3.0,7.0,88,0.00,,,0.00,171.000000,,2013-02-26 16:32:00,
2013-02-26 10:42:00,26.0,23.0,-100.00,NNE,13,3.0,7.0,88,0.00,,,0.00,171.000000,,2013-02-26 16:42:00,
2013-02-26 10:52:00,26.0,23.0,-100.00,NNE,13,3.0,7.0,88,0.00,,,0.00,171.000000,,2013-02-26 16:52:00,
2013-02-26 11:01:00,26.0,23.0,-100.00,NNE,13,3.0,7.0,88,0.00,,,0.00,171.000000,,2013-02-26 17:01:00,
2013-02-26 11:32:00,30.0,25.0,-100.00,North,357,4.0,9.0,83,0.00,,,0.00,195.000000,,2013-02-26 17:32:00,
2013-02-26 11:42:00,30.0,25.0,-100.00,North,357,4.0,9.0,83,0.00,,,0.00,195.000000,,2013-02-26 17:42:00,
2013-02-26 11:52:00,30.0,25.0,-100.00,North,357,4.0,9.0,83,0.00,,,0.00,195.000000,,2013-02-26 17:52:00,
2013-02-26 12:01:00,30.0,25.0,-100.00,North,357,4.0,9.0,83,0.00,,,0.00,195.000000,,2013-02-26 18:01:00,
2013-02-26 12:32:00,35.0,26.0,-100.00,NE,38,5.0,9.0,70,0.00,,,0.00,234.000000,,2013-02-26 18:32:00,
2013-02-26 12:42:00,35.0,26.0,-100.00,NE,38,5.0,9.0,70,0.00,,,0.00,234.000000,,2013-02-26 18:42:00,
2013-02-26 12:52:00,35.0,26.0,-100.00,NE,38,5.0,9.0,70,0.00,,,0.00,234.000000,,2013-02-26 18:52:00,
2013-02-26 13:01:00,35.0,26.0,-100.00,NE,38,5.0,9.0,70,0.00,,,0.00,234.000000,,2013-02-26 19:01:00,
2013-02-26 13:32:00,38.0,25.0,-100.00,NE,54,8.0,13.0,59,0.00,,,0.00,462.000000,,2013-02-26 19:32:00,
2013-02-26 13:42:00,38.0,25.0,-100.00,NE,54,8.0,13.0,59,0.00,,,0.00,462.000000,,2013-02-26 19:42:00,
2013-02-26 13:52:00,38.0,25.0,-100.00,NE,54,8.0,13.0,59,0.00,,,0.00,462.000000,,2013-02-26 19:52:00,
2013-02-26 14:01:00,38.0,25.0,-100.00,NE,54,8.0,13.0,59,0.00,,,0.00,462.000000,,2013-02-26 20:01:00,
2013-02-26 16:32:00,42.0,23.0,-100.00,NNE,21,10.0,19.0,47,-99.99,,,0.00,336.000000,,2013-02-26 22:32:00,
2013-02-26 16:42:00,42.0,23.0,-100.00,NNE,21,10.0,19.0,47,-99.99,,,0.00,336.000000,,2013-02-26 22:42:00,
2013-02-26 16:52:00,42.0,23.0,-100.00,NNE,21,10.0,19.0,47,-99.99,,,0.00,336.000000,,2013-02-26 22:52:00,
2013-02-26 17:01:00,42.0,23.0,-100.00,NNE,21,10.0,19.0,47,-99.99,,,0.00,336.000000,,2013-02-26 23:01:00,
2013-02-26 17:32:00,37.0,23.0,-100.00,NNE,19,12.0,22.0,56,0.00,,,0.00,161.000000,,2013-02-26 23:32:00,
2013-02-26 17:42:00,37.0,23.0,-100.00,NNE,19,12.0,22.0,56,0.00,,,0.00,161.000000,,2013-02-26 23:42:00,
2013-02-26 17:52:00,37.0,23.0,-100.00,NNE,19,12.0,22.0,56,0.00,,,0.00,161.000000,,2013-02-26 23:52:00,
2013-02-26 18:01:00,37.0,23.0,-100.00,NNE,19,12.0,22.0,56,0.00,,,0.00,161.000000,,2013-02-27 00:01:00,
2013-02-26 18:32:00,34.0,24.0,-100.00,NNE,26,7.0,17.0,66,0.00,,,0.00,30.000000,,2013-02-27 00:32:00,
2013-02-26 18:42:00,34.0,24.0,-100.00,NNE,26,7.0,17.0,66,0.00,,,0.00,30.000000,,2013-02-27 00:42:00,
2013-02-26 18:52:00,34.0,24.0,-100.00,NNE,26,7.0,17.0,66,0.00,,,0.00,30.000000,,2013-02-27 00:52:00,
2013-02-26 19:01:00,34.0,24.0,-100.00,NNE,26,7.0,17.0,66,0.00,,,0.00,30.000000,,2013-02-27 01:01:00,
2013-02-26 19:32:00,33.0,24.0,-100.00,NNE,24,9.0,14.0,68,0.00,,,0.00,0.000000,,2013-02-27 01:32:00,
2013-02-26 19:42:00,33.0,24.0,-100.00,NNE,24,9.0,14.0,68,0.00,,,0.00,0.000000,,2013-02-27 01:42:00,
2013-02-26 19:52:00,33.0,24.0,-100.00,NNE,24,9.0,14.0,68,0.00,,,0.00,0.000000,,2013-02-27 01:52:00,
2013-02-26 20:01:00,33.0,24.0,-100.00,NNE,24,9.0,14.0,68,0.00,,,0.00,0.000000,,2013-02-27 02:01:00,
2013-02-26 20:32:00,31.0,22.0,-100.00,NNE,31,9.0,16.0,69,0.00,,,0.00,0.000000,,2013-02-27 02:32:00,
2013-02-26 20:42:00,31.0,22.0,-100.00,NNE,31,9.0,16.0,69,0.00,,,0.00,0.000000,,2013-02-27 02:42:00,
2013-02-26 20:52:00,31.0,22.0,-100.00,NNE,31,9.0,16.0,69,0.00,,,0.00,0.000000,,2013-02-27 02:52:00,
2013-02-26 21:02:00,31.0,22.0,-100.00,NNE,31,9.0,16.0,69,0.00,,,0.00,0.000000,,2013-02-27 03:02:00,
2013-02-26 21:32:00,30.0,22.0,-100.00,NNE,22,7.0,17.0,71,0.00,,,0.00,0.000000,,2013-02-27 03:32:00,
2013-02-26 21:42:00,30.0,22.0,-100.00,NNE,22,7.0,17.0,71,0.00,,,0.00,0.000000,,2013-02-27 03:42:00,
2013-02-26 21:52:00,30.0,22.0,-100.00,NNE,22,7.0,17.0,71,0.00,,,0.00,0.000000,,2013-02-27 03:52:00,
2013-02-26 22:01:00,30.0,22.0,-100.00,NNE,22,7.0,17.0,71,0.00,,,0.00,0.000000,,2013-02-27 04:01:00,
2013-02-26 22:32:00,30.0,22.0,-100.00,NNE,30,9.0,15.0,72,0.00,,,0.00,0.000000,,2013-02-27 04:32:00,
2013-02-26 22:42:00,30.0,22.0,-100.00,NNE,30,9.0,15.0,72,0.00,,,0.00,0.000000,,2013-02-27 04:42:00,
2013-02-26 22:52:00,30.0,22.0,-100.00,NNE,30,9.0,15.0,72,0.00,,,0.00,0.000000,,2013-02-27 04:52:00,
2013-02-26 23:01:00,30.0,22.0,-100.00,NNE,30,9.0,15.0,72,0.00,,,0.00,0.000000,,2013-02-27 05:01:00,
2013-02-26 23:32:00,30.0,23.0,-100.00,NNE,23,10.0,17.0,74,0.00,,,0.00,0.000000,,2013-02-27 05:32:00,
2013-02-26 23:42:00,30.0,23.0,-100.00,NNE,23,10.0,17.0,74,0.00,,,0.00,0.000000,,2013-02-27 05:42:00,
2013-02-26 23:52:00,30.0,23.0,-100.00,NNE,23,10.0,17.0,74,0.00,,,0.00,0.000000,,2013-02-27 05:52:00,